world map with KACQ marked

KACQ - Airport

This information may not be accurate or current and is not valid for navigation or flight planning. No warranty of fitness for any purpose is made or implied.

flag of Minnesotaflag of United States

Donate via PayPal

Additional information is available on the NEW Great Circle Mapper

Location
City:  Waseca, Minnesota, United States
Name:Waseca Municipal Airport
ICAO:KACQ
FAA:ACQ

Details
Type:Airport (Airfield)
Use:Public/Civil
Latitude:44°04'24"N (44.073464)
Longitude:93°33'11"W (-93.552943)
Datum:WGS 1984
Elevation:1127 ft (344 m)
Runways:1
Longest:3399 × 75 ft (1036 × 23 m)

Time
Timezone:UTC+28:08 (DST+29:08)
Local Time:

Weather
METAR:KACQ  011034Z AUTO 15004KT 10SM CLR M06/M10 A3045 RMK AO2

Related Locations
Nearby:
Farthest:MGV: 10758 mi / 17313 km
Margaret River, WA, AU

Find:

   beyond  
but within

Other Information
Maps:
Links:
Sources:

  

Sectional Chart

Flight Planning
at skyvector.com

 


Great Circle Mapper   Great Circle Mapper
Great Circle Mapper FAQ   Great Circle Mapper FAQ
  Karl's Home Page
KLSē   KLSē Home
   GC on Facebook
Airlines of the World   Airlines of the World
Donate via PayPal


Copyright © 2004-2014, Karl L. Swartz. All rights reserved.
All trademarks mentioned herein belong to their respective owners.

Please see credits for attribution and copyright information.

Karl Swartz <karl@kls2.com>
  Powered by FreeBSD
Valid HTML 4.01!
Labeled with ICRA
hCard Microformat
Geo Microformat